Nearby METAR Reports

 

KPAE - Everett, Washington, USA
Distance from station: NW 15mi, 25km
Updated: 08/05/2020 7:53am
Clear
Clear
 Wind from calm
Wind: Calm
Temperature: 61°F , 16°C
Dew Point: 52°F , 11°C
Humidity: 72%
Barometer: 29.98 inHg , 1015.2 hPa
Clouds: Clear
Visibility: 10 miles , 16 km
2020/08/05 14:53 KPAE 051453Z 00000KT 10SM CLR 16/11 A2998 RMK AO2 SLP150 T01560111 53001
KBFI - Seattle/Boeing, Washington, USA
Distance from station: SW 20mi, 31km
Updated: 08/05/2020 7:53am
Clear
Clear
 Wind from S
Wind: S 3 mph , 6 km/h
Temperature: 64°F , 18°C
Dew Point: 55°F , 13°C
Humidity: 73%
Barometer: 29.96 inHg , 1014.6 hPa
Clouds: Clear
Visibility: 10 miles , 16 km
2020/08/05 14:53 KBFI 051453Z 17003KT 10SM CLR 18/13 A2996 RMK AO2 SLP145 T01830133 53002
KSEA - Seattle/Metro, Washington, USA
Distance from station: SSW 25mi, 41km
Updated: 08/05/2020 7:53am
Few Clouds
Few Clouds
 Wind from SSW
Wind: SSW 6 mph , 9 km/h
Temperature: 63°F , 17°C
Dew Point: 57°F , 14°C
Humidity: 83%
Barometer: 29.98 inHg , 1015.2 hPa
Clouds: Few Clouds
Visibility: 10 miles , 16 km
Cloud details: Few Clouds 6500 ft
Few Clouds 25000 ft
2020/08/05 14:53 KSEA 051453Z 21005KT 10SM FEW065 FEW250 17/14 A2998 RMK AO2 SLP154 T01720139 53002
 
KAWO - Arlington Muni, Washington, USA
Distance from station: NNW 28mi, 46km
Updated: 08/05/2020 7:56am
Clear
Clear
 Wind from NW
Wind: NW 7 mph , 11 km/h
Temperature: 57°F , 14°C
Dew Point: 54°F , 12°C
Humidity: 88%
Barometer: 29.98 inHg , 1015.2 hPa
Clouds: Clear
Visibility: 10 miles , 16 km
2020/08/05 14:56 KAWO 051456Z AUTO 32006KT 10SM CLR 14/12 A2998 RMK AO2 SLP156 T01440117 53002
KPWT - Bremerton Ntnl, Washington, USA
Distance from station: WSW 38mi, 61km
Updated: 08/05/2020 8:51am
Mist, Overcast
Mist, Overcast
 Wind from SW
Wind: SW 6 mph , 9 km/h
Temperature: 61°F , 16°C
Dew Point: 57°F , 14°C
Humidity: 88%
Barometer: 29.99 inHg , 1015.6 hPa
Summary: Mist
Clouds: Overcast
Visibility: 3 miles , 5 km
Cloud details: Overcast 100 ft
2020/08/05 15:51 KPWT 051551Z AUTO 23005KT 3SM BR OVC001 16/14 A2999 RMK AO2
KTIW - Tacoma, Washington, USA
Distance from station: SW 43mi, 69km
Updated: 08/05/2020 7:53am
Partly cloudy
Partly cloudy
 Wind from WSW
Wind: WSW 6 mph , 9 km/h
Temperature: 57°F , 14°C
Dew Point: 54°F , 12°C
Humidity: 88%
Barometer: 29.99 inHg , 1015.6 hPa
Clouds: Partly cloudy
Visibility: 10 miles , 16 km
Cloud details: Partly cloudy 900 ft
Partly cloudy 4500 ft
2020/08/05 14:53 KTIW 051453Z 24005KT 10SM SCT009 SCT045 14/12 A2999 RMK AO2 SLP151 T01440122 53004
 
KPLU - Puyallup/Thun, Washington, USA
Distance from station: SSW 47mi, 76km
Updated: 08/05/2020 8:35am
Clear
Clear
 Wind from calm
Wind: Calm
Temperature: 66°F , 19°C
Dew Point: 59°F , 15°C
Humidity: 78%
Barometer: 29.99 inHg , 1015.6 hPa
Clouds: Clear
Visibility: 10 miles , 16 km
2020/08/05 15:35 KPLU 051535Z AUTO 00000KT 10SM CLR 19/15 A2999 RMK AO2
KSMP - Stampede Pass, Washington, USA
Distance from station: SE 47mi, 76km
Updated: 08/05/2020 8:21am
Mist, Partly cloudy
Mist, Partly cloudy
 Wind from SW
Wind: SW 6 mph , 9 km/h
Temperature: 55°F , 13°C
Dew Point: 54°F , 12°C
Humidity: 94%
Barometer: 30.05 inHg , 1017.6 hPa
Summary: Mist
Clouds: Partly cloudy
Visibility: 6 miles , 10 km
Cloud details: Partly cloudy 200 ft
2020/08/05 15:21 KSMP 051521Z AUTO 22005KT 6SM BR SCT002 13/12 A3005 RMK AO2 T01330117
KNUW - Whidbey Is. Nas, Washington, USA
Distance from station: NW 49mi, 79km
Updated: 08/05/2020 8:44am
Mostly cloudy
Mostly cloudy
 Wind from WSW
Wind: WSW 12 mph , 19 km/h
Temperature: 57°F , 14°C
Dew Point: 52°F , 11°C
Humidity: 82%
Barometer: 30.02 inHg , 1016.6 hPa
Clouds: Mostly cloudy
Visibility: 7 miles , 11 km
Cloud details: Mostly cloudy 600 ft
2020/08/05 15:44 KNUW 051544Z 24010KT 7SM BKN006 14/11 A3002 RMK AO2 T01440111
 
KBVS - Burlington/Mt V, Washington, USA
Distance from station: NNW 51mi, 83km
Updated: 08/05/2020 8:35am
Clear
Clear
 Wind from SSW
Wind: SSW 6 mph , 9 km/h
Temperature: 64°F , 18°C
Dew Point: 55°F , 13°C
Humidity: 73%
Barometer: 29.99 inHg , 1015.6 hPa
Clouds: Clear
Visibility: 10 miles , 16 km
2020/08/05 15:35 KBVS 051535Z AUTO 20005KT 10SM CLR 18/13 A2999 RMK A01
KSHN - Shelton, Washington, USA
Distance from station: SW 63mi, 101km
Updated: 08/05/2020 8:03am
Few Clouds
Few Clouds
 Wind from WSW
Wind: WSW 14 mph , 22 km/h
Temperature: 57°F , 14°C
Dew Point: 54°F , 12°C
Humidity: 88%
Barometer: 29.97 inHg , 1014.9 hPa
Clouds: Few Clouds
Visibility: 10 miles , 16 km
Cloud details: Few Clouds 900 ft
2020/08/05 15:03 KSHN 051503Z AUTO 24012KT 10SM FEW009 14/12 A2997 RMK AO2 T01390117
KOLM - Olympia, Washington, USA
Distance from station: SW 68mi, 110km
Updated: 08/05/2020 8:40am
Partly cloudy
Partly cloudy
 Wind from calm
Wind: Calm
Temperature: 61°F , 16°C
Dew Point: 54°F , 12°C
Humidity: 77%
Barometer: 29.99 inHg , 1015.6 hPa
Clouds: Partly cloudy
Visibility: 10 miles , 16 km
Cloud details: Partly cloudy 1200 ft
2020/08/05 15:40 KOLM 051540Z 00000KT 10SM SCT012 16/12 A2999 RMK AO2 T01610122
 
KCLM - Port Angeles, Washington, USA
Distance from station: WNW 72mi, 115km
Updated: 08/05/2020 7:53am
Clear
Clear
 Wind from W
Wind: W 12 mph , 19 km/h
Temperature: 57°F , 14°C
Dew Point: 52°F , 11°C
Humidity: 82%
Barometer: 29.98 inHg , 1015.2 hPa
Clouds: Clear
Visibility: 10 miles , 16 km
2020/08/05 14:53 KCLM 051453Z AUTO 27010KT 10SM CLR 14/11 A2998 RMK AO2 SLP153 T01440111 53006
CWYJ - Victoria Univ, British Columbia, Canada
Distance from station: NW 75mi, 121km
Updated: 08/05/2020 8:00am

 Wind from WSW
Wind: WSW 2 mph , 4 km/h
Temperature: 63°F , 17°C
Dew Point: 54°F , 12°C
Humidity: 73%
2020/08/05 15:00 CWYJ 051500Z AUTO 25002KT 17/12 RMK AO1 SLP138 T01660115 53003
KBLI - Bellingham, Washington, USA
Distance from station: NNW 75mi, 121km
Updated: 08/05/2020 7:53am
Clear
Clear
 Wind from S
Wind: S 9 mph , 15 km/h, Gust: 20 mph , 31 km/h
Temperature: 63°F , 17°C
Dew Point: 52°F , 11°C
Humidity: 68%
Barometer: 29.94 inHg , 1013.9 hPa
Clouds: Clear
Visibility: 10 miles , 16 km
2020/08/05 14:53 KBLI 051453Z 19008G17KT 10SM CLR 17/11 A2994 RMK AO2 SLP144 T01720106 53005